createdAt,value
2022-09-25T00:00:58.145Z,5.14
2022-09-25T00:03:27.612Z,5.32
2022-09-25T00:06:04.972Z,5.26
2022-09-25T00:08:32.250Z,5.22
2022-09-25T00:10:59.195Z,5.15
2022-09-25T00:13:27.460Z,5.15
2022-09-25T00:15:58.176Z,5.17
2022-09-25T00:18:45.038Z,5.14
2022-09-25T00:21:14.696Z,5.14
2022-09-25T00:23:45.134Z,5.06
2022-09-25T00:26:14.081Z,5.05
2022-09-25T00:28:41.893Z,5.03
2022-09-25T00:31:10.264Z,4.97
2022-09-25T00:33:37.561Z,4.91
2022-09-25T00:36:07.417Z,4.83
2022-09-25T00:38:35.956Z,4.84
2022-09-25T00:41:04.240Z,4.78
2022-09-25T00:43:45.719Z,4.84
2022-09-25T00:46:24.355Z,4.79
2022-09-25T00:48:56.426Z,4.69
2022-09-25T00:51:29.785Z,4.64
2022-09-25T00:54:04.715Z,4.65
2022-09-25T00:56:37.976Z,4.66
2022-09-25T00:59:06.049Z,4.66
2022-09-25T01:01:32.909Z,4.69
2022-09-25T01:04:00.177Z,4.72
2022-09-25T01:06:28.182Z,4.64
2022-09-25T01:08:56.579Z,4.65
2022-09-25T01:11:23.389Z,4.70
2022-09-25T01:13:54.465Z,4.74
2022-09-25T01:16:51.116Z,4.73
2022-09-25T01:19:55.829Z,4.67
2022-09-25T01:22:41.303Z,4.66
2022-09-25T01:25:26.585Z,4.56
2022-09-25T01:28:27.198Z,4.47
2022-09-25T01:31:02.117Z,4.36
2022-09-25T01:33:37.191Z,4.38
2022-09-25T01:36:19.748Z,4.33
2022-09-25T01:38:55.686Z,4.26
2022-09-25T01:41:24.412Z,4.10
2022-09-25T01:44:06.256Z,4.06
2022-09-25T01:46:46.539Z,4.10
2022-09-25T01:49:28.398Z,4.05
2022-09-25T01:51:56.717Z,4.01
2022-09-25T01:54:44.283Z,4.08
2022-09-25T01:57:18.648Z,3.88
2022-09-25T02:00:09.819Z,3.94
2022-09-25T02:02:49.642Z,3.93
2022-09-25T02:05:27.252Z,3.90
2022-09-25T02:08:11.431Z,3.96
2022-09-25T02:10:45.189Z,3.97
2022-09-25T02:13:15.704Z,4.04
2022-09-25T02:15:55.872Z,4.00
2022-09-25T02:18:43.450Z,4.00
2022-09-25T02:21:17.368Z,3.92
2022-09-25T02:24:05.820Z,4.00
2022-09-25T02:26:35.129Z,3.98
2022-09-25T02:29:02.574Z,3.95
2022-09-25T02:31:35.858Z,3.87
2022-09-25T02:34:12.139Z,3.87
2022-09-25T02:36:43.056Z,3.86
2022-09-25T02:39:11.893Z,3.86
2022-09-25T02:41:41.378Z,3.96
2022-09-25T02:44:26.802Z,3.91
2022-09-25T02:46:56.398Z,3.87
2022-09-25T02:49:47.166Z,3.75
2022-09-25T02:52:35.539Z,3.80
2022-09-25T02:55:09.674Z,3.81
2022-09-25T02:57:49.396Z,3.80
2022-09-25T03:00:16.858Z,3.77
2022-09-25T03:02:51.373Z,3.60
2022-09-25T03:05:20.882Z,3.58
2022-09-25T03:08:06.319Z,3.51
2022-09-25T03:10:36.848Z,3.42
2022-09-25T03:13:22.506Z,3.39
2022-09-25T03:16:02.414Z,3.31
2022-09-25T03:18:31.335Z,3.33
2022-09-25T03:20:59.004Z,3.35
2022-09-25T03:23:26.362Z,3.36
2022-09-25T03:25:54.754Z,3.24
2022-09-25T03:28:22.766Z,3.37
2022-09-25T03:30:58.340Z,3.46
2022-09-25T03:33:26.936Z,3.41
2022-09-25T03:36:01.072Z,3.52
2022-09-25T03:38:27.834Z,3.54
2022-09-25T03:40:54.568Z,3.58
2022-09-25T03:43:21.359Z,3.64
2022-09-25T03:45:48.389Z,3.63
2022-09-25T03:48:15.170Z,3.61
2022-09-25T03:50:42.063Z,3.68
2022-09-25T03:53:08.788Z,3.50
2022-09-25T03:55:36.134Z,3.67
2022-09-25T03:58:02.841Z,3.66
2022-09-25T04:00:29.559Z,3.62
2022-09-25T04:02:57.865Z,3.70
2022-09-25T04:05:24.860Z,3.60
2022-09-25T04:07:51.801Z,3.60
2022-09-25T04:10:18.487Z,3.48
2022-09-25T04:12:45.167Z,3.47
2022-09-25T04:15:11.900Z,3.53
2022-09-25T04:17:38.578Z,3.57
2022-09-25T04:20:05.581Z,3.56
2022-09-25T04:22:32.302Z,3.62
2022-09-25T04:24:58.979Z,3.57
2022-09-25T04:27:26.762Z,3.51
2022-09-25T04:29:53.449Z,3.49
2022-09-25T04:32:38.924Z,3.42
2022-09-25T04:35:05.977Z,3.45
2022-09-25T04:37:32.719Z,3.38
2022-09-25T04:39:59.463Z,3.33
2022-09-25T04:42:26.207Z,3.29
2022-09-25T04:44:56.565Z,3.29
2022-09-25T04:47:24.908Z,3.33
2022-09-25T04:49:52.635Z,3.38
2022-09-25T04:52:20.446Z,3.43
2022-09-25T04:54:47.828Z,3.46
2022-09-25T04:57:38.884Z,3.43
2022-09-25T05:00:07.211Z,3.42
2022-09-25T05:02:35.233Z,3.49
2022-09-25T05:05:02.096Z,3.58
2022-09-25T05:07:28.947Z,3.64
2022-09-25T05:09:55.822Z,3.77
2022-09-25T05:12:22.522Z,3.87
2022-09-25T05:14:49.263Z,3.97
2022-09-25T05:17:15.950Z,4.14
2022-09-25T05:19:42.678Z,4.27
2022-09-25T05:22:09.376Z,4.35
2022-09-25T05:24:38.609Z,4.52
2022-09-25T05:27:05.385Z,4.69
2022-09-25T05:29:32.326Z,4.60
2022-09-25T05:31:59.633Z,5.01
2022-09-25T05:34:26.944Z,5.25
2022-09-25T05:36:53.666Z,5.38
2022-09-25T05:39:20.447Z,5.57
2022-09-25T05:41:47.147Z,5.72
2022-09-25T05:44:14.973Z,5.90
2022-09-25T05:46:42.281Z,6.18
2022-09-25T05:49:09.231Z,6.38
2022-09-25T05:51:36.050Z,6.53
2022-09-25T05:54:02.813Z,6.81
2022-09-25T05:56:29.606Z,6.94
2022-09-25T05:58:58.550Z,7.17
2022-09-25T06:01:26.203Z,7.36
2022-09-25T06:03:53.074Z,7.55
2022-09-25T06:06:23.803Z,7.67
2022-09-25T06:08:54.732Z,7.83
2022-09-25T06:11:22.511Z,7.99
2022-09-25T06:13:54.184Z,8.12
2022-09-25T06:16:21.518Z,8.32
2022-09-25T06:18:48.619Z,8.44
2022-09-25T06:21:15.593Z,8.60
2022-09-25T06:23:44.964Z,8.79
2022-09-25T06:26:12.651Z,8.94
2022-09-25T06:28:39.687Z,9.02
2022-09-25T06:31:06.604Z,9.20
2022-09-25T06:33:33.541Z,9.37
2022-09-25T06:36:00.851Z,9.49
2022-09-25T06:38:28.112Z,9.63
2022-09-25T06:40:58.754Z,9.76
2022-09-25T06:43:27.262Z,9.92
2022-09-25T06:45:54.137Z,10.09
2022-09-25T06:48:22.342Z,10.29
2022-09-25T06:50:52.543Z,10.32
2022-09-25T06:53:21.329Z,10.45
2022-09-25T06:55:49.463Z,10.58
2022-09-25T06:58:19.664Z,10.66
2022-09-25T07:00:50.868Z,10.84
2022-09-25T07:03:36.423Z,10.86
2022-09-25T07:06:05.549Z,11.42
2022-09-25T07:08:32.699Z,11.60
2022-09-25T07:11:00.067Z,11.84
2022-09-25T07:13:29.934Z,11.98
2022-09-25T07:15:59.010Z,12.13
2022-09-25T07:18:26.983Z,12.32
2022-09-25T07:20:59.271Z,12.50
2022-09-25T07:23:26.129Z,12.66
2022-09-25T07:25:52.924Z,12.80
2022-09-25T07:28:20.244Z,12.96
2022-09-25T07:30:48.646Z,13.19
2022-09-25T07:33:16.646Z,13.34
2022-09-25T07:35:43.449Z,13.32
2022-09-25T07:38:10.359Z,13.49
2022-09-25T07:40:37.251Z,13.55
2022-09-25T07:43:07.384Z,13.71
2022-09-25T07:45:34.284Z,13.87
2022-09-25T07:48:03.165Z,14.09
2022-09-25T07:50:31.846Z,14.20
2022-09-25T07:52:59.063Z,14.33
2022-09-25T07:55:28.698Z,14.48
2022-09-25T07:57:58.629Z,14.42
2022-09-25T08:00:25.435Z,14.52
2022-09-25T08:02:57.448Z,14.71
2022-09-25T08:05:25.182Z,15.06
2022-09-25T08:07:53.308Z,15.30
2022-09-25T08:10:20.625Z,15.64
2022-09-25T08:12:47.383Z,15.80
2022-09-25T08:15:14.920Z,16.07
2022-09-25T08:17:42.814Z,16.22
2022-09-25T08:20:10.395Z,16.37
2022-09-25T08:22:37.309Z,16.31
2022-09-25T08:25:04.220Z,16.48
2022-09-25T08:27:31.962Z,16.56
2022-09-25T08:30:00.183Z,16.72
2022-09-25T08:32:26.958Z,16.81
2022-09-25T08:34:55.298Z,17.08
2022-09-25T08:37:22.122Z,17.20
2022-09-25T08:39:48.890Z,17.45
2022-09-25T08:42:21.227Z,17.81
2022-09-25T08:45:21.149Z,18.03
2022-09-25T08:48:11.815Z,18.22
2022-09-25T08:50:38.613Z,18.54
2022-09-25T08:53:23.989Z,18.78
2022-09-25T08:56:09.949Z,18.99
2022-09-25T08:58:43.279Z,19.19
2022-09-25T09:01:18.468Z,19.36
2022-09-25T09:04:05.701Z,19.60
2022-09-25T09:06:34.380Z,19.66
2022-09-25T09:09:27.475Z,19.81
2022-09-25T09:12:19.696Z,19.77
2022-09-25T09:14:51.032Z,19.87
2022-09-25T09:17:24.124Z,19.71
2022-09-25T09:19:59.671Z,19.88
2022-09-25T09:22:37.588Z,20.07
2022-09-25T09:25:19.696Z,20.42
2022-09-25T09:27:49.760Z,20.77
2022-09-25T09:30:21.797Z,21.04
2022-09-25T09:33:17.858Z,20.99
2022-09-25T09:36:12.471Z,20.69
2022-09-25T09:39:18.306Z,20.79
2022-09-25T09:42:09.239Z,20.35
2022-09-25T09:45:09.589Z,20.67
2022-09-25T09:47:48.519Z,20.57
2022-09-25T09:50:30.404Z,20.89
2022-09-25T09:53:03.672Z,20.99
2022-09-25T09:55:47.250Z,20.93
2022-09-25T09:58:41.604Z,21.37
2022-09-25T10:01:29.145Z,21.80
2022-09-25T10:04:22.782Z,22.05
2022-09-25T10:07:05.005Z,22.13
2022-09-25T10:09:32.402Z,22.65
2022-09-25T10:12:18.035Z,23.17
2022-09-25T10:14:47.415Z,22.84
2022-09-25T10:17:15.793Z,22.39
2022-09-25T10:19:51.549Z,22.18
2022-09-25T10:22:22.319Z,22.27
2022-09-25T10:25:02.044Z,22.54
2022-09-25T10:27:36.739Z,22.85
2022-09-25T10:30:09.920Z,23.08
2022-09-25T10:32:45.035Z,23.03
2022-09-25T10:35:24.226Z,22.87
2022-09-25T10:37:56.141Z,23.43
2022-09-25T10:40:25.930Z,23.89
2022-09-25T10:43:14.750Z,24.30
2022-09-25T10:45:41.748Z,24.54
2022-09-25T10:49:05.468Z,24.02
2022-09-25T10:51:32.458Z,23.93
2022-09-25T10:54:13.941Z,23.74
2022-09-25T10:56:42.506Z,23.86
2022-09-25T10:59:23.723Z,24.17
2022-09-25T11:01:53.168Z,24.65
2022-09-25T11:04:32.142Z,24.87
2022-09-25T11:07:05.001Z,24.83
2022-09-25T11:09:33.801Z,25.37
2022-09-25T11:12:13.862Z,25.71
2022-09-25T11:14:55.328Z,25.89
2022-09-25T11:17:38.299Z,26.02
2022-09-25T11:20:17.535Z,26.22
2022-09-25T11:22:59.375Z,26.50
2022-09-25T11:25:49.087Z,27.00
2022-09-25T11:28:37.716Z,27.32
2022-09-25T11:31:30.033Z,27.64
2022-09-25T11:34:10.124Z,28.06
2022-09-25T11:37:02.668Z,28.28
2022-09-25T11:40:03.715Z,27.46
2022-09-25T11:42:43.600Z,26.69
2022-09-25T11:45:36.805Z,26.81
2022-09-25T11:48:21.202Z,26.72
2022-09-25T11:51:11.223Z,27.88
2022-09-25T11:53:43.917Z,28.47
2022-09-25T11:56:25.916Z,28.74
2022-09-25T11:59:04.881Z,29.05
2022-09-25T12:01:52.679Z,29.49
2022-09-25T12:04:56.114Z,30.02
2022-09-25T12:07:41.250Z,30.34
2022-09-25T12:10:20.354Z,30.76
2022-09-25T12:13:01.575Z,31.23
2022-09-25T12:15:46.680Z,31.42
2022-09-25T12:18:40.317Z,31.83
2022-09-25T12:21:09.719Z,31.94
2022-09-25T12:23:42.913Z,32.03
2022-09-25T12:26:27.507Z,32.50
2022-09-25T12:29:12.886Z,32.09
2022-09-25T12:32:21.376Z,32.05
2022-09-25T12:35:11.134Z,32.70
2022-09-25T12:37:45.542Z,33.14
2022-09-25T12:40:21.853Z,33.43
2022-09-25T12:43:07.820Z,33.54
2022-09-25T12:45:49.788Z,34.08
2022-09-25T12:48:31.814Z,33.86
2022-09-25T12:51:15.644Z,32.67
2022-09-25T12:53:58.135Z,33.38
2022-09-25T12:56:49.537Z,32.74
2022-09-25T12:59:46.060Z,33.21
2022-09-25T13:02:26.087Z,33.30
2022-09-25T13:05:10.329Z,33.84
2022-09-25T13:07:37.136Z,34.64
2022-09-25T13:10:25.516Z,35.01
2022-09-25T13:12:55.689Z,35.21
2022-09-25T13:15:35.349Z,34.82
2022-09-25T13:18:04.835Z,34.83
2022-09-25T13:20:32.073Z,34.97
2022-09-25T13:23:09.444Z,34.41
2022-09-25T13:26:09.785Z,33.90
2022-09-25T13:28:48.519Z,33.50
2022-09-25T13:31:24.049Z,34.21
2022-09-25T13:34:01.492Z,34.16
2022-09-25T13:36:32.410Z,33.72
2022-09-25T13:39:21.645Z,34.16
2022-09-25T13:41:55.496Z,33.94
2022-09-25T13:44:43.744Z,33.19
2022-09-25T13:47:25.404Z,33.39
2022-09-25T13:49:53.648Z,33.31
2022-09-25T13:52:36.642Z,32.65
2022-09-25T13:55:22.134Z,33.66
2022-09-25T13:57:58.421Z,34.06
2022-09-25T14:00:50.482Z,31.90
2022-09-25T14:03:44.791Z,32.73
2022-09-25T14:06:20.450Z,31.75
2022-09-25T14:08:48.801Z,31.94
2022-09-25T14:11:20.225Z,30.87
2022-09-25T14:13:52.033Z,29.60
2022-09-25T14:16:28.921Z,29.99
2022-09-25T14:18:58.264Z,30.74
2022-09-25T14:21:28.868Z,30.56
2022-09-25T14:23:57.888Z,30.23
2022-09-25T14:26:26.847Z,30.24
2022-09-25T14:28:56.371Z,29.88
2022-09-25T14:31:43.638Z,29.44
2022-09-25T14:34:41.557Z,29.27
2022-09-25T14:37:30.290Z,29.95
2022-09-25T14:40:16.157Z,30.91
2022-09-25T14:42:44.022Z,32.34
2022-09-25T14:45:35.745Z,33.29
2022-09-25T14:48:07.162Z,33.89
2022-09-25T14:50:44.540Z,34.52
2022-09-25T14:53:27.727Z,35.45
2022-09-25T14:55:56.435Z,36.04
2022-09-25T14:58:29.117Z,36.48
2022-09-25T15:00:58.992Z,36.65
2022-09-25T15:03:31.566Z,36.65
2022-09-25T15:06:02.271Z,36.33
2022-09-25T15:08:40.892Z,35.66
2022-09-25T15:11:17.040Z,34.76
2022-09-25T15:13:44.963Z,34.05
2022-09-25T15:16:38.475Z,33.34
2022-09-25T15:19:28.132Z,32.59
2022-09-25T15:21:55.490Z,31.97
2022-09-25T15:24:27.931Z,31.34
2022-09-25T15:27:03.736Z,30.41
2022-09-25T15:29:38.410Z,30.01
2022-09-25T15:32:05.946Z,29.53
2022-09-25T15:34:33.441Z,29.07
2022-09-25T15:37:21.054Z,28.64
2022-09-25T15:39:48.170Z,28.13
2022-09-25T15:42:15.245Z,27.67
2022-09-25T15:44:42.727Z,27.06
2022-09-25T15:47:35.275Z,26.47
2022-09-25T15:50:04.135Z,25.84
2022-09-25T15:52:35.900Z,25.38
2022-09-25T15:55:14.762Z,24.58
2022-09-25T15:57:42.254Z,23.98
2022-09-25T16:00:40.907Z,23.68
2022-09-25T16:03:32.490Z,23.31
2022-09-25T16:06:03.132Z,22.77
2022-09-25T16:08:32.712Z,22.27
2022-09-25T16:11:09.272Z,21.81
2022-09-25T16:13:43.538Z,21.35
2022-09-25T16:16:30.213Z,21.18
2022-09-25T16:18:59.635Z,20.86
2022-09-25T16:21:34.086Z,20.53
2022-09-25T16:24:03.694Z,20.34
2022-09-25T16:26:38.208Z,20.19
2022-09-25T16:29:05.130Z,19.94
2022-09-25T16:31:38.295Z,19.77
2022-09-25T16:34:09.272Z,19.60
2022-09-25T16:36:45.053Z,19.41
2022-09-25T16:39:23.927Z,19.13
2022-09-25T16:41:51.407Z,19.02
2022-09-25T16:44:30.124Z,18.85
2022-09-25T16:46:56.801Z,18.53
2022-09-25T16:49:24.958Z,18.29
2022-09-25T16:51:54.610Z,18.33
2022-09-25T16:54:31.681Z,18.22
2022-09-25T16:56:59.481Z,18.10
2022-09-25T16:59:28.366Z,18.02
2022-09-25T17:02:09.962Z,17.83
2022-09-25T17:04:40.077Z,17.82
2022-09-25T17:07:08.564Z,17.76
2022-09-25T17:09:35.372Z,17.72
2022-09-25T17:12:07.560Z,17.68
2022-09-25T17:14:36.734Z,17.64
2022-09-25T17:17:03.707Z,17.39
2022-09-25T17:19:30.667Z,17.48
2022-09-25T17:21:58.200Z,17.28
2022-09-25T17:24:27.729Z,17.26
2022-09-25T17:26:54.778Z,17.15
2022-09-25T17:29:22.334Z,17.13
2022-09-25T17:31:49.301Z,17.06
2022-09-25T17:34:28.610Z,16.93
2022-09-25T17:36:55.964Z,16.81
2022-09-25T17:39:22.691Z,16.75
2022-09-25T17:41:49.905Z,16.68
2022-09-25T17:44:24.554Z,16.57
2022-09-25T17:46:52.039Z,16.53
2022-09-25T17:49:18.951Z,16.42
2022-09-25T17:51:45.942Z,16.37
2022-09-25T17:54:13.474Z,16.27
2022-09-25T17:56:42.652Z,16.21
2022-09-25T17:59:10.055Z,16.11
2022-09-25T18:01:39.761Z,16.00
2022-09-25T18:04:21.324Z,15.93
2022-09-25T18:06:49.134Z,15.90
2022-09-25T18:09:16.164Z,15.88
2022-09-25T18:11:43.748Z,15.82
2022-09-25T18:14:15.523Z,15.82
2022-09-25T18:16:44.111Z,15.75
2022-09-25T18:19:34.581Z,15.71
2022-09-25T18:22:21.890Z,15.53
2022-09-25T18:24:56.742Z,15.60
2022-09-25T18:27:26.790Z,15.46
2022-09-25T18:29:54.005Z,15.46
2022-09-25T18:32:21.555Z,15.38
2022-09-25T18:34:48.282Z,15.35
2022-09-25T18:37:15.023Z,15.32
2022-09-25T18:39:41.876Z,15.17
2022-09-25T18:42:08.749Z,15.12
2022-09-25T18:44:42.240Z,14.96
2022-09-25T18:47:09.265Z,14.97
2022-09-25T18:49:38.416Z,14.90
2022-09-25T18:52:05.916Z,14.77
2022-09-25T18:54:32.779Z,14.77
2022-09-25T18:57:00.196Z,14.64
2022-09-25T18:59:27.015Z,14.42
2022-09-25T19:01:58.001Z,14.29
2022-09-25T19:04:25.932Z,14.28
2022-09-25T19:06:52.991Z,14.31
2022-09-25T19:09:28.151Z,14.26
2022-09-25T19:11:55.454Z,14.09
2022-09-25T19:14:24.111Z,14.06
2022-09-25T19:16:53.832Z,14.07
2022-09-25T19:19:21.061Z,14.07
2022-09-25T19:21:47.985Z,13.98
2022-09-25T19:24:15.345Z,13.95
2022-09-25T19:26:42.867Z,13.91
2022-09-25T19:29:10.072Z,13.82
2022-09-25T19:31:37.203Z,13.81
2022-09-25T19:34:04.893Z,13.68
2022-09-25T19:36:34.115Z,13.66
2022-09-25T19:39:01.989Z,13.58
2022-09-25T19:41:31.393Z,13.50
2022-09-25T19:44:05.773Z,13.33
2022-09-25T19:46:35.227Z,13.22
2022-09-25T19:49:02.383Z,13.12
2022-09-25T19:51:29.538Z,13.08
2022-09-25T19:53:56.278Z,13.00
2022-09-25T19:56:23.149Z,12.95
2022-09-25T19:58:51.223Z,12.87
2022-09-25T20:01:21.580Z,12.73
2022-09-25T20:03:48.676Z,12.71
2022-09-25T20:06:17.541Z,12.66
2022-09-25T20:08:44.744Z,12.48
2022-09-25T20:11:23.225Z,12.52
2022-09-25T20:13:52.077Z,12.48
2022-09-25T20:16:21.261Z,12.42
2022-09-25T20:19:00.226Z,12.31
2022-09-25T20:21:30.286Z,12.22
2022-09-25T20:23:58.827Z,12.16
2022-09-25T20:26:27.478Z,12.10
2022-09-25T20:29:08.690Z,12.00
2022-09-25T20:31:37.070Z,11.78
2022-09-25T20:34:05.749Z,11.74
2022-09-25T20:36:33.726Z,11.70
2022-09-25T20:39:01.045Z,11.55
2022-09-25T20:41:27.869Z,11.58
2022-09-25T20:43:59.831Z,11.45
2022-09-25T20:46:27.536Z,11.44
2022-09-25T20:48:57.701Z,11.39
2022-09-25T20:51:27.512Z,11.28
2022-09-25T20:54:02.083Z,11.17
2022-09-25T20:56:31.893Z,11.13
2022-09-25T20:59:00.267Z,11.09
2022-09-25T21:01:30.100Z,10.99
2022-09-25T21:04:00.909Z,10.83
2022-09-25T21:06:30.247Z,10.86
2022-09-25T21:09:01.131Z,10.84
2022-09-25T21:11:32.516Z,10.88
2022-09-25T21:14:02.756Z,10.61
2022-09-25T21:16:31.589Z,10.61
2022-09-25T21:19:04.260Z,10.58
2022-09-25T21:21:32.655Z,10.49
2022-09-25T21:23:59.714Z,10.45
2022-09-25T21:26:30.064Z,10.50
2022-09-25T21:29:02.498Z,10.35
2022-09-25T21:31:36.763Z,10.17
2022-09-25T21:34:04.957Z,10.11
2022-09-25T21:36:33.987Z,9.99
2022-09-25T21:39:01.168Z,9.88
2022-09-25T21:41:29.896Z,9.76
2022-09-25T21:44:06.680Z,9.67
2022-09-25T21:46:35.151Z,9.54
2022-09-25T21:49:04.327Z,9.47
2022-09-25T21:51:43.445Z,9.42
2022-09-25T21:54:11.600Z,9.31
2022-09-25T21:56:38.875Z,9.29
2022-09-25T21:59:09.095Z,9.22
2022-09-25T22:01:38.674Z,9.17
2022-09-25T22:04:10.376Z,9.19
2022-09-25T22:06:42.464Z,9.16
2022-09-25T22:09:16.845Z,9.15
2022-09-25T22:11:45.702Z,9.09
2022-09-25T22:14:16.032Z,8.90
2022-09-25T22:16:45.120Z,9.02
2022-09-25T22:19:13.518Z,8.99
2022-09-25T22:21:41.891Z,9.02
2022-09-25T22:24:09.060Z,9.03
2022-09-25T22:26:39.959Z,8.99
2022-09-25T22:29:07.398Z,9.02
2022-09-25T22:31:35.990Z,8.96
2022-09-25T22:34:06.993Z,8.91
2022-09-25T22:36:38.461Z,8.96
2022-09-25T22:39:05.963Z,8.98
2022-09-25T22:41:33.430Z,8.99
2022-09-25T22:44:01.117Z,9.01
2022-09-25T22:46:28.727Z,9.06
2022-09-25T22:48:56.332Z,9.08
2022-09-25T22:51:25.269Z,9.03
2022-09-25T22:53:53.703Z,8.97
2022-09-25T22:56:24.737Z,8.90
2022-09-25T22:58:57.383Z,8.81
2022-09-25T23:01:26.575Z,8.83
2022-09-25T23:03:58.665Z,8.83
2022-09-25T23:06:27.417Z,8.81
2022-09-25T23:09:03.023Z,8.82
2022-09-25T23:11:29.828Z,8.79
2022-09-25T23:14:06.197Z,8.79
2022-09-25T23:16:34.315Z,8.78
2022-09-25T23:19:01.850Z,8.68
2022-09-25T23:21:30.342Z,8.71
2022-09-25T23:24:02.922Z,8.69
2022-09-25T23:26:30.192Z,8.65
2022-09-25T23:29:00.056Z,8.67
2022-09-25T23:31:26.861Z,8.71
2022-09-25T23:33:53.823Z,8.71
2022-09-25T23:36:23.245Z,8.74
2022-09-25T23:38:52.289Z,8.78
2022-09-25T23:41:22.400Z,8.79
2022-09-25T23:43:50.783Z,8.91
2022-09-25T23:46:19.632Z,8.89
2022-09-25T23:48:47.131Z,8.93
2022-09-25T23:51:15.666Z,8.96
2022-09-25T23:53:43.320Z,8.99
2022-09-25T23:56:22.781Z,9.06
2022-09-25T23:58:50.590Z,8.99
